sensor_id;sensor_type;location;lat;lon;timestamp;P1;durP1;ratioP1;P2;durP2;ratioP2
28007;SDS011;15333;50.010;20.020;2022-10-31T00:00:24;82.07;;;45.13;;
28007;SDS011;15333;50.010;20.020;2022-10-31T00:03:45;86.15;;;47.33;;
28007;SDS011;15333;50.010;20.020;2022-10-31T00:06:46;93.10;;;46.92;;
28007;SDS011;15333;50.010;20.020;2022-10-31T00:09:47;91.90;;;50.05;;
28007;SDS011;15333;50.010;20.020;2022-10-31T00:12:48;94.80;;;49.63;;
28007;SDS011;15333;50.010;20.020;2022-10-31T00:15:49;92.07;;;48.70;;
28007;SDS011;15333;50.010;20.020;2022-10-31T00:18:50;97.07;;;50.78;;
28007;SDS011;15333;50.010;20.020;2022-10-31T00:21:52;93.47;;;50.47;;
28007;SDS011;15333;50.010;20.020;2022-10-31T00:24:53;103.45;;;52.65;;
28007;SDS011;15333;50.010;20.020;2022-10-31T00:27:54;113.03;;;53.20;;
28007;SDS011;15333;50.010;20.020;2022-10-31T00:30:59;99.65;;;52.05;;
28007;SDS011;15333;50.010;20.020;2022-10-31T00:34:01;104.70;;;53.83;;
28007;SDS011;15333;50.010;20.020;2022-10-31T00:37:03;103.30;;;53.83;;
28007;SDS011;15333;50.010;20.020;2022-10-31T00:40:04;113.45;;;56.33;;
28007;SDS011;15333;50.010;20.020;2022-10-31T00:43:05;117.35;;;57.97;;
28007;SDS011;15333;50.010;20.020;2022-10-31T00:46:06;109.10;;;54.80;;
28007;SDS011;15333;50.010;20.020;2022-10-31T00:49:07;120.22;;;59.05;;
28007;SDS011;15333;50.010;20.020;2022-10-31T00:52:09;111.82;;;57.25;;
28007;SDS011;15333;50.010;20.020;2022-10-31T00:55:10;116.07;;;56.75;;
28007;SDS011;15333;50.010;20.020;2022-10-31T00:58:11;118.78;;;56.55;;
28007;SDS011;15333;50.010;20.020;2022-10-31T01:01:12;112.65;;;55.63;;
28007;SDS011;15333;50.010;20.020;2022-10-31T01:04:13;115.07;;;54.63;;
28007;SDS011;15333;50.010;20.020;2022-10-31T01:07:14;110.15;;;53.63;;
28007;SDS011;15333;50.010;20.020;2022-10-31T01:10:15;99.78;;;51.30;;
28007;SDS011;15333;50.010;20.020;2022-10-31T01:13:17;109.63;;;52.95;;
28007;SDS011;15333;50.010;20.020;2022-10-31T01:16:20;104.38;;;50.80;;
28007;SDS011;15333;50.010;20.020;2022-10-31T01:19:24;100.47;;;50.03;;
28007;SDS011;15333;50.010;20.020;2022-10-31T01:22:25;96.43;;;49.58;;
28007;SDS011;15333;50.010;20.020;2022-10-31T01:25:26;97.65;;;49.47;;
28007;SDS011;15333;50.010;20.020;2022-10-31T01:28:28;91.75;;;47.63;;
28007;SDS011;15333;50.010;20.020;2022-10-31T01:31:29;97.75;;;47.15;;
28007;SDS011;15333;50.010;20.020;2022-10-31T01:34:32;86.38;;;46.30;;
28007;SDS011;15333;50.010;20.020;2022-10-31T01:37:35;91.80;;;45.63;;
28007;SDS011;15333;50.010;20.020;2022-10-31T01:40:36;83.70;;;43.05;;
28007;SDS011;15333;50.010;20.020;2022-10-31T01:43:50;82.57;;;42.40;;
28007;SDS011;15333;50.010;20.020;2022-10-31T01:46:55;87.75;;;44.03;;
28007;SDS011;15333;50.010;20.020;2022-10-31T01:50:09;74.57;;;41.45;;
28007;SDS011;15333;50.010;20.020;2022-10-31T01:53:20;76.40;;;38.55;;
28007;SDS011;15333;50.010;20.020;2022-10-31T01:56:22;82.45;;;39.90;;
28007;SDS011;15333;50.010;20.020;2022-10-31T01:59:25;82.72;;;39.67;;
28007;SDS011;15333;50.010;20.020;2022-10-31T02:02:30;70.22;;;37.65;;
28007;SDS011;15333;50.010;20.020;2022-10-31T02:05:32;72.15;;;39.53;;
28007;SDS011;15333;50.010;20.020;2022-10-31T02:08:33;73.18;;;37.70;;
28007;SDS011;15333;50.010;20.020;2022-10-31T02:11:37;72.28;;;38.03;;
28007;SDS011;15333;50.010;20.020;2022-10-31T02:14:38;69.68;;;37.40;;
28007;SDS011;15333;50.010;20.020;2022-10-31T02:17:41;76.32;;;39.22;;
28007;SDS011;15333;50.010;20.020;2022-10-31T02:33:51;72.95;;;38.92;;
28007;SDS011;15333;50.010;20.020;2022-10-31T02:36:56;68.18;;;38.33;;
28007;SDS011;15333;50.010;20.020;2022-10-31T02:44:08;65.32;;;35.45;;
28007;SDS011;15333;50.010;20.020;2022-10-31T02:47:17;75.53;;;38.58;;
28007;SDS011;15333;50.010;20.020;2022-10-31T02:50:25;64.60;;;35.45;;
28007;SDS011;15333;50.010;20.020;2022-10-31T02:53:35;66.72;;;36.35;;
28007;SDS011;15333;50.010;20.020;2022-10-31T02:56:37;68.25;;;36.55;;
28007;SDS011;15333;50.010;20.020;2022-10-31T02:59:38;66.00;;;36.88;;
28007;SDS011;15333;50.010;20.020;2022-10-31T03:03:06;72.13;;;38.22;;
28007;SDS011;15333;50.010;20.020;2022-10-31T03:06:33;70.60;;;37.58;;
28007;SDS011;15333;50.010;20.020;2022-10-31T03:09:49;69.45;;;37.15;;
28007;SDS011;15333;50.010;20.020;2022-10-31T03:16:07;65.00;;;35.53;;
28007;SDS011;15333;50.010;20.020;2022-10-31T03:19:19;64.18;;;36.67;;
28007;SDS011;15333;50.010;20.020;2022-10-31T03:22:34;64.28;;;35.80;;
28007;SDS011;15333;50.010;20.020;2022-10-31T03:25:38;68.63;;;37.47;;
28007;SDS011;15333;50.010;20.020;2022-10-31T03:28:53;63.28;;;36.10;;
28007;SDS011;15333;50.010;20.020;2022-10-31T03:32:02;65.22;;;35.08;;
28007;SDS011;15333;50.010;20.020;2022-10-31T03:35:09;64.93;;;35.35;;
28007;SDS011;15333;50.010;20.020;2022-10-31T03:38:12;67.47;;;35.22;;
28007;SDS011;15333;50.010;20.020;2022-10-31T03:41:19;66.03;;;34.72;;
28007;SDS011;15333;50.010;20.020;2022-10-31T03:44:25;70.10;;;35.38;;
28007;SDS011;15333;50.010;20.020;2022-10-31T03:47:34;67.78;;;35.58;;
28007;SDS011;15333;50.010;20.020;2022-10-31T03:50:42;68.88;;;36.08;;
28007;SDS011;15333;50.010;20.020;2022-10-31T03:57:35;62.97;;;32.85;;
28007;SDS011;15333;50.010;20.020;2022-10-31T04:03:46;64.22;;;33.00;;
28007;SDS011;15333;50.010;20.020;2022-10-31T04:06:48;72.22;;;34.78;;
28007;SDS011;15333;50.010;20.020;2022-10-31T04:09:51;69.05;;;35.40;;
28007;SDS011;15333;50.010;20.020;2022-10-31T04:13:01;64.13;;;36.15;;
28007;SDS011;15333;50.010;20.020;2022-10-31T04:16:12;64.50;;;35.25;;
28007;SDS011;15333;50.010;20.020;2022-10-31T04:19:15;65.55;;;36.17;;
28007;SDS011;15333;50.010;20.020;2022-10-31T04:22:16;66.32;;;35.88;;
28007;SDS011;15333;50.010;20.020;2022-10-31T04:25:17;66.53;;;35.17;;
28007;SDS011;15333;50.010;20.020;2022-10-31T04:28:18;67.35;;;35.88;;
28007;SDS011;15333;50.010;20.020;2022-10-31T04:31:19;70.90;;;39.00;;
28007;SDS011;15333;50.010;20.020;2022-10-31T04:34:23;69.57;;;36.63;;
28007;SDS011;15333;50.010;20.020;2022-10-31T04:37:24;64.88;;;36.40;;
28007;SDS011;15333;50.010;20.020;2022-10-31T04:40:25;68.53;;;37.42;;
28007;SDS011;15333;50.010;20.020;2022-10-31T04:43:29;63.50;;;36.00;;
28007;SDS011;15333;50.010;20.020;2022-10-31T04:46:30;60.72;;;35.75;;
28007;SDS011;15333;50.010;20.020;2022-10-31T04:49:33;65.32;;;33.88;;
28007;SDS011;15333;50.010;20.020;2022-10-31T04:52:43;67.53;;;36.08;;
28007;SDS011;15333;50.010;20.020;2022-10-31T04:55:47;67.00;;;36.22;;
28007;SDS011;15333;50.010;20.020;2022-10-31T04:58:58;66.40;;;37.92;;
28007;SDS011;15333;50.010;20.020;2022-10-31T05:02:02;64.85;;;37.35;;
28007;SDS011;15333;50.010;20.020;2022-10-31T05:05:20;69.40;;;37.78;;
28007;SDS011;15333;50.010;20.020;2022-10-31T05:08:22;70.80;;;38.92;;
28007;SDS011;15333;50.010;20.020;2022-10-31T05:11:25;66.45;;;37.42;;
28007;SDS011;15333;50.010;20.020;2022-10-31T05:14:29;72.25;;;39.55;;
28007;SDS011;15333;50.010;20.020;2022-10-31T05:17:53;67.05;;;38.42;;
28007;SDS011;15333;50.010;20.020;2022-10-31T05:24:32;72.15;;;39.35;;
28007;SDS011;15333;50.010;20.020;2022-10-31T05:27:33;70.55;;;39.65;;
28007;SDS011;15333;50.010;20.020;2022-10-31T05:30:34;78.00;;;39.67;;
28007;SDS011;15333;50.010;20.020;2022-10-31T05:33:35;71.15;;;39.55;;
28007;SDS011;15333;50.010;20.020;2022-10-31T05:36:54;76.88;;;39.72;;
28007;SDS011;15333;50.010;20.020;2022-10-31T05:39:57;65.05;;;37.58;;
28007;SDS011;15333;50.010;20.020;2022-10-31T05:42:58;66.80;;;36.80;;
28007;SDS011;15333;50.010;20.020;2022-10-31T05:45:59;68.03;;;37.47;;
28007;SDS011;15333;50.010;20.020;2022-10-31T05:49:18;69.00;;;36.47;;
28007;SDS011;15333;50.010;20.020;2022-10-31T05:52:39;63.33;;;33.20;;
28007;SDS011;15333;50.010;20.020;2022-10-31T05:55:53;62.88;;;35.38;;
28007;SDS011;15333;50.010;20.020;2022-10-31T05:58:56;65.68;;;35.08;;
28007;SDS011;15333;50.010;20.020;2022-10-31T06:01:57;57.90;;;32.65;;
28007;SDS011;15333;50.010;20.020;2022-10-31T06:05:21;57.55;;;32.00;;
28007;SDS011;15333;50.010;20.020;2022-10-31T06:08:22;62.97;;;33.33;;
28007;SDS011;15333;50.010;20.020;2022-10-31T06:11:24;55.92;;;31.02;;
28007;SDS011;15333;50.010;20.020;2022-10-31T06:14:47;51.08;;;28.27;;
28007;SDS011;15333;50.010;20.020;2022-10-31T06:17:57;52.90;;;28.52;;
28007;SDS011;15333;50.010;20.020;2022-10-31T06:21:03;49.38;;;26.60;;
28007;SDS011;15333;50.010;20.020;2022-10-31T06:24:04;48.88;;;26.08;;
28007;SDS011;15333;50.010;20.020;2022-10-31T06:27:26;48.65;;;26.85;;
28007;SDS011;15333;50.010;20.020;2022-10-31T06:30:28;49.15;;;24.23;;
28007;SDS011;15333;50.010;20.020;2022-10-31T06:33:29;45.60;;;25.23;;
28007;SDS011;15333;50.010;20.020;2022-10-31T06:36:34;50.88;;;26.85;;
28007;SDS011;15333;50.010;20.020;2022-10-31T06:39:37;51.38;;;25.30;;
28007;SDS011;15333;50.010;20.020;2022-10-31T06:42:39;48.63;;;25.80;;
28007;SDS011;15333;50.010;20.020;2022-10-31T06:45:40;45.85;;;25.23;;
28007;SDS011;15333;50.010;20.020;2022-10-31T06:48:56;41.58;;;23.80;;
28007;SDS011;15333;50.010;20.020;2022-10-31T06:52:10;47.20;;;24.08;;
28007;SDS011;15333;50.010;20.020;2022-10-31T06:55:11;45.88;;;25.08;;
28007;SDS011;15333;50.010;20.020;2022-10-31T06:58:12;38.88;;;23.27;;
28007;SDS011;15333;50.010;20.020;2022-10-31T07:01:14;45.70;;;23.83;;
28007;SDS011;15333;50.010;20.020;2022-10-31T07:04:15;42.35;;;22.52;;
28007;SDS011;15333;50.010;20.020;2022-10-31T07:07:16;36.60;;;20.90;;
28007;SDS011;15333;50.010;20.020;2022-10-31T07:10:19;41.53;;;23.48;;
28007;SDS011;15333;50.010;20.020;2022-10-31T07:13:27;47.28;;;22.95;;
28007;SDS011;15333;50.010;20.020;2022-10-31T07:16:37;39.78;;;23.00;;
28007;SDS011;15333;50.010;20.020;2022-10-31T07:19:40;39.72;;;23.38;;
28007;SDS011;15333;50.010;20.020;2022-10-31T07:22:42;44.05;;;23.63;;
28007;SDS011;15333;50.010;20.020;2022-10-31T07:25:43;40.17;;;23.65;;
28007;SDS011;15333;50.010;20.020;2022-10-31T07:28:55;43.15;;;23.45;;
28007;SDS011;15333;50.010;20.020;2022-10-31T07:31:59;43.70;;;24.52;;
28007;SDS011;15333;50.010;20.020;2022-10-31T07:35:02;44.58;;;23.77;;
28007;SDS011;15333;50.010;20.020;2022-10-31T07:38:13;38.38;;;23.08;;
28007;SDS011;15333;50.010;20.020;2022-10-31T07:41:15;42.47;;;23.60;;
28007;SDS011;15333;50.010;20.020;2022-10-31T07:44:18;37.55;;;23.05;;
28007;SDS011;15333;50.010;20.020;2022-10-31T07:47:46;41.25;;;23.92;;
28007;SDS011;15333;50.010;20.020;2022-10-31T07:51:12;43.17;;;24.60;;
28007;SDS011;15333;50.010;20.020;2022-10-31T07:54:31;40.03;;;24.10;;
28007;SDS011;15333;50.010;20.020;2022-10-31T07:57:32;41.53;;;24.50;;
28007;SDS011;15333;50.010;20.020;2022-10-31T08:00:34;44.53;;;25.15;;
28007;SDS011;15333;50.010;20.020;2022-10-31T08:03:37;46.55;;;24.45;;
28007;SDS011;15333;50.010;20.020;2022-10-31T08:06:44;41.90;;;23.48;;
28007;SDS011;15333;50.010;20.020;2022-10-31T08:09:53;55.92;;;25.42;;
28007;SDS011;15333;50.010;20.020;2022-10-31T08:13:03;41.90;;;23.92;;
28007;SDS011;15333;50.010;20.020;2022-10-31T08:16:06;39.63;;;23.65;;
28007;SDS011;15333;50.010;20.020;2022-10-31T08:19:11;46.13;;;23.98;;
28007;SDS011;15333;50.010;20.020;2022-10-31T08:22:13;39.40;;;23.35;;
28007;SDS011;15333;50.010;20.020;2022-10-31T08:25:14;43.13;;;23.00;;
28007;SDS011;15333;50.010;20.020;2022-10-31T08:28:17;36.95;;;22.50;;
28007;SDS011;15333;50.010;20.020;2022-10-31T08:31:20;33.75;;;21.13;;
28007;SDS011;15333;50.010;20.020;2022-10-31T08:34:22;40.40;;;21.02;;
28007;SDS011;15333;50.010;20.020;2022-10-31T08:37:42;35.08;;;20.83;;
28007;SDS011;15333;50.010;20.020;2022-10-31T08:40:47;42.80;;;21.42;;
28007;SDS011;15333;50.010;20.020;2022-10-31T08:43:49;37.85;;;19.58;;
28007;SDS011;15333;50.010;20.020;2022-10-31T08:46:50;35.95;;;19.92;;
28007;SDS011;15333;50.010;20.020;2022-10-31T08:49:51;33.72;;;18.45;;
28007;SDS011;15333;50.010;20.020;2022-10-31T08:52:52;31.05;;;19.15;;
28007;SDS011;15333;50.010;20.020;2022-10-31T08:55:54;33.97;;;18.58;;
28007;SDS011;15333;50.010;20.020;2022-10-31T08:58:58;31.77;;;18.67;;
28007;SDS011;15333;50.010;20.020;2022-10-31T09:02:19;34.05;;;16.75;;
28007;SDS011;15333;50.010;20.020;2022-10-31T09:05:20;40.38;;;17.10;;
28007;SDS011;15333;50.010;20.020;2022-10-31T09:08:22;36.92;;;16.83;;
28007;SDS011;15333;50.010;20.020;2022-10-31T09:11:25;33.55;;;15.93;;
28007;SDS011;15333;50.010;20.020;2022-10-31T09:14:44;29.92;;;15.27;;
28007;SDS011;15333;50.010;20.020;2022-10-31T09:18:10;32.50;;;14.85;;
28007;SDS011;15333;50.010;20.020;2022-10-31T09:21:18;27.95;;;13.95;;
28007;SDS011;15333;50.010;20.020;2022-10-31T09:24:20;26.25;;;12.65;;
28007;SDS011;15333;50.010;20.020;2022-10-31T09:27:21;28.98;;;13.65;;
28007;SDS011;15333;50.010;20.020;2022-10-31T09:30:24;27.08;;;13.63;;
28007;SDS011;15333;50.010;20.020;2022-10-31T09:33:30;22.45;;;12.77;;
28007;SDS011;15333;50.010;20.020;2022-10-31T09:36:50;24.98;;;13.15;;
28007;SDS011;15333;50.010;20.020;2022-10-31T09:39:55;27.58;;;12.60;;
28007;SDS011;15333;50.010;20.020;2022-10-31T09:47:15;31.90;;;12.05;;
28007;SDS011;15333;50.010;20.020;2022-10-31T09:50:02;25.10;;;12.27;;
28007;SDS011;15333;50.010;20.020;2022-10-31T09:53:58;28.88;;;11.88;;
28007;SDS011;15333;50.010;20.020;2022-10-31T09:57:00;25.08;;;11.27;;
28007;SDS011;15333;50.010;20.020;2022-10-31T10:00:04;28.55;;;11.88;;
28007;SDS011;15333;50.010;20.020;2022-10-31T10:03:28;24.55;;;11.38;;
28007;SDS011;15333;50.010;20.020;2022-10-31T10:06:47;25.65;;;11.55;;
28007;SDS011;15333;50.010;20.020;2022-10-31T10:10:35;24.13;;;12.07;;
28007;SDS011;15333;50.010;20.020;2022-10-31T10:17:40;24.88;;;10.85;;
28007;SDS011;15333;50.010;20.020;2022-10-31T10:31:17;23.10;;;9.75;;
28007;SDS011;15333;50.010;20.020;2022-10-31T10:34:22;27.73;;;10.88;;
28007;SDS011;15333;50.010;20.020;2022-10-31T10:37:35;23.63;;;9.88;;
28007;SDS011;15333;50.010;20.020;2022-10-31T10:40:40;22.48;;;9.70;;
28007;SDS011;15333;50.010;20.020;2022-10-31T10:43:42;23.08;;;10.18;;
28007;SDS011;15333;50.010;20.020;2022-10-31T10:46:46;24.17;;;10.30;;
28007;SDS011;15333;50.010;20.020;2022-10-31T10:50:18;18.05;;;9.70;;
28007;SDS011;15333;50.010;20.020;2022-10-31T11:00:10;25.15;;;10.45;;
28007;SDS011;15333;50.010;20.020;2022-10-31T11:03:18;24.67;;;10.38;;
28007;SDS011;15333;50.010;20.020;2022-10-31T11:06:21;28.30;;;10.82;;
28007;SDS011;15333;50.010;20.020;2022-10-31T11:09:26;23.73;;;10.13;;
28007;SDS011;15333;50.010;20.020;2022-10-31T11:12:30;22.17;;;10.05;;
28007;SDS011;15333;50.010;20.020;2022-10-31T11:15:38;27.15;;;10.23;;
28007;SDS011;15333;50.010;20.020;2022-10-31T11:18:50;27.08;;;10.48;;
28007;SDS011;15333;50.010;20.020;2022-10-31T11:21:51;26.27;;;9.90;;
28007;SDS011;15333;50.010;20.020;2022-10-31T11:24:52;24.20;;;10.10;;
28007;SDS011;15333;50.010;20.020;2022-10-31T11:28:00;23.33;;;8.55;;
28007;SDS011;15333;50.010;20.020;2022-10-31T11:31:08;27.48;;;9.00;;
28007;SDS011;15333;50.010;20.020;2022-10-31T11:37:35;23.67;;;8.98;;
28007;SDS011;15333;50.010;20.020;2022-10-31T11:43:59;23.08;;;9.70;;
28007;SDS011;15333;50.010;20.020;2022-10-31T11:47:06;26.52;;;10.82;;
28007;SDS011;15333;50.010;20.020;2022-10-31T11:50:57;22.48;;;9.80;;
28007;SDS011;15333;50.010;20.020;2022-10-31T11:53:47;31.52;;;9.65;;
28007;SDS011;15333;50.010;20.020;2022-10-31T11:56:51;23.42;;;9.65;;
28007;SDS011;15333;50.010;20.020;2022-10-31T11:59:53;31.85;;;11.57;;
28007;SDS011;15333;50.010;20.020;2022-10-31T12:06:37;22.00;;;9.00;;
28007;SDS011;15333;50.010;20.020;2022-10-31T12:09:40;22.15;;;9.77;;
28007;SDS011;15333;50.010;20.020;2022-10-31T12:15:54;18.83;;;8.05;;
28007;SDS011;15333;50.010;20.020;2022-10-31T12:19:27;23.88;;;9.85;;
28007;SDS011;15333;50.010;20.020;2022-10-31T12:25:51;26.35;;;10.43;;
28007;SDS011;15333;50.010;20.020;2022-10-31T12:29:11;25.55;;;9.55;;
28007;SDS011;15333;50.010;20.020;2022-10-31T12:58:52;30.75;;;10.05;;
28007;SDS011;15333;50.010;20.020;2022-10-31T13:01:59;27.77;;;10.70;;
28007;SDS011;15333;50.010;20.020;2022-10-31T13:05:31;22.60;;;8.85;;
28007;SDS011;15333;50.010;20.020;2022-10-31T13:08:44;24.73;;;9.43;;
28007;SDS011;15333;50.010;20.020;2022-10-31T13:12:31;21.55;;;8.88;;
28007;SDS011;15333;50.010;20.020;2022-10-31T13:15:26;23.90;;;9.70;;
28007;SDS011;15333;50.010;20.020;2022-10-31T13:22:10;22.40;;;9.55;;
28007;SDS011;15333;50.010;20.020;2022-10-31T13:28:33;28.88;;;9.95;;
28007;SDS011;15333;50.010;20.020;2022-10-31T13:31:41;21.70;;;9.57;;
28007;SDS011;15333;50.010;20.020;2022-10-31T13:34:45;21.85;;;9.70;;
28007;SDS011;15333;50.010;20.020;2022-10-31T13:41:50;23.25;;;9.43;;
28007;SDS011;15333;50.010;20.020;2022-10-31T13:45:06;26.40;;;9.35;;
28007;SDS011;15333;50.010;20.020;2022-10-31T13:51:23;20.77;;;8.77;;
28007;SDS011;15333;50.010;20.020;2022-10-31T13:54:42;20.23;;;9.23;;
28007;SDS011;15333;50.010;20.020;2022-10-31T13:57:45;20.27;;;9.45;;
28007;SDS011;15333;50.010;20.020;2022-10-31T14:00:46;34.85;;;14.05;;
28007;SDS011;15333;50.010;20.020;2022-10-31T14:07:22;33.30;;;9.57;;
28007;SDS011;15333;50.010;20.020;2022-10-31T14:16:42;27.70;;;9.65;;
28007;SDS011;15333;50.010;20.020;2022-10-31T14:19:56;19.95;;;10.05;;
28007;SDS011;15333;50.010;20.020;2022-10-31T14:26:32;27.98;;;9.63;;
28007;SDS011;15333;50.010;20.020;2022-10-31T14:29:34;32.40;;;10.40;;
28007;SDS011;15333;50.010;20.020;2022-10-31T14:32:35;25.33;;;10.13;;
28007;SDS011;15333;50.010;20.020;2022-10-31T14:35:42;28.65;;;10.93;;
28007;SDS011;15333;50.010;20.020;2022-10-31T14:52:05;23.17;;;9.57;;
28007;SDS011;15333;50.010;20.020;2022-10-31T14:55:11;28.58;;;10.25;;
28007;SDS011;15333;50.010;20.020;2022-10-31T14:58:15;30.58;;;11.25;;
28007;SDS011;15333;50.010;20.020;2022-10-31T15:04:30;58.70;;;27.30;;
28007;SDS011;15333;50.010;20.020;2022-10-31T15:07:33;38.55;;;14.52;;
28007;SDS011;15333;50.010;20.020;2022-10-31T15:10:36;24.60;;;10.18;;
28007;SDS011;15333;50.010;20.020;2022-10-31T15:13:45;34.58;;;11.18;;
28007;SDS011;15333;50.010;20.020;2022-10-31T15:17:01;29.90;;;11.32;;
28007;SDS011;15333;50.010;20.020;2022-10-31T15:20:04;28.48;;;10.43;;
28007;SDS011;15333;50.010;20.020;2022-10-31T15:23:05;27.48;;;11.35;;
28007;SDS011;15333;50.010;20.020;2022-10-31T15:26:06;35.47;;;18.33;;
28007;SDS011;15333;50.010;20.020;2022-10-31T15:29:14;32.03;;;14.85;;
28007;SDS011;15333;50.010;20.020;2022-10-31T15:32:18;25.88;;;10.43;;
28007;SDS011;15333;50.010;20.020;2022-10-31T15:35:29;30.27;;;10.63;;
28007;SDS011;15333;50.010;20.020;2022-10-31T15:38:31;25.75;;;10.73;;
28007;SDS011;15333;50.010;20.020;2022-10-31T15:41:34;32.58;;;10.80;;
28007;SDS011;15333;50.010;20.020;2022-10-31T15:45:05;27.75;;;10.95;;
28007;SDS011;15333;50.010;20.020;2022-10-31T15:48:26;32.88;;;11.27;;
28007;SDS011;15333;50.010;20.020;2022-10-31T15:51:31;30.45;;;12.00;;
28007;SDS011;15333;50.010;20.020;2022-10-31T15:54:33;42.00;;;12.73;;
28007;SDS011;15333;50.010;20.020;2022-10-31T15:57:49;29.73;;;12.32;;
28007;SDS011;15333;50.010;20.020;2022-10-31T16:01:02;37.88;;;12.13;;
28007;SDS011;15333;50.010;20.020;2022-10-31T16:07:14;32.40;;;13.23;;
28007;SDS011;15333;50.010;20.020;2022-10-31T16:10:21;35.47;;;12.65;;
28007;SDS011;15333;50.010;20.020;2022-10-31T16:13:26;35.53;;;13.18;;
28007;SDS011;15333;50.010;20.020;2022-10-31T16:16:29;37.08;;;14.38;;
28007;SDS011;15333;50.010;20.020;2022-10-31T16:19:33;35.85;;;15.40;;
28007;SDS011;15333;50.010;20.020;2022-10-31T16:22:37;38.13;;;14.93;;
28007;SDS011;15333;50.010;20.020;2022-10-31T16:25:39;35.85;;;13.30;;
28007;SDS011;15333;50.010;20.020;2022-10-31T16:28:49;33.25;;;14.05;;
28007;SDS011;15333;50.010;20.020;2022-10-31T16:31:52;38.70;;;15.48;;
28007;SDS011;15333;50.010;20.020;2022-10-31T16:34:57;36.20;;;15.98;;
28007;SDS011;15333;50.010;20.020;2022-10-31T16:38:18;35.40;;;15.50;;
28007;SDS011;15333;50.010;20.020;2022-10-31T16:41:20;36.17;;;15.18;;
28007;SDS011;15333;50.010;20.020;2022-10-31T16:44:22;37.22;;;16.95;;
28007;SDS011;15333;50.010;20.020;2022-10-31T16:47:25;39.17;;;16.67;;
28007;SDS011;15333;50.010;20.020;2022-10-31T16:50:26;41.15;;;15.73;;
28007;SDS011;15333;50.010;20.020;2022-10-31T16:53:28;40.70;;;15.93;;
28007;SDS011;15333;50.010;20.020;2022-10-31T16:56:31;37.95;;;16.25;;
28007;SDS011;15333;50.010;20.020;2022-10-31T16:59:34;44.40;;;17.05;;
28007;SDS011;15333;50.010;20.020;2022-10-31T17:02:35;46.97;;;17.00;;
28007;SDS011;15333;50.010;20.020;2022-10-31T17:05:38;45.60;;;19.25;;
28007;SDS011;15333;50.010;20.020;2022-10-31T17:08:39;43.40;;;18.45;;
28007;SDS011;15333;50.010;20.020;2022-10-31T17:11:43;43.67;;;18.90;;
28007;SDS011;15333;50.010;20.020;2022-10-31T17:14:47;38.00;;;18.55;;
28007;SDS011;15333;50.010;20.020;2022-10-31T17:17:51;39.60;;;18.30;;
28007;SDS011;15333;50.010;20.020;2022-10-31T17:20:56;41.65;;;18.75;;
28007;SDS011;15333;50.010;20.020;2022-10-31T17:23:59;46.00;;;20.60;;
28007;SDS011;15333;50.010;20.020;2022-10-31T17:27:00;57.72;;;22.17;;
28007;SDS011;15333;50.010;20.020;2022-10-31T17:30:01;50.20;;;23.38;;
28007;SDS011;15333;50.010;20.020;2022-10-31T17:33:01;46.40;;;23.88;;
28007;SDS011;15333;50.010;20.020;2022-10-31T17:36:03;51.63;;;24.88;;
28007;SDS011;15333;50.010;20.020;2022-10-31T17:39:04;58.17;;;25.83;;
28007;SDS011;15333;50.010;20.020;2022-10-31T17:42:07;61.92;;;25.42;;
28007;SDS011;15333;50.010;20.020;2022-10-31T17:45:08;56.88;;;28.55;;
28007;SDS011;15333;50.010;20.020;2022-10-31T17:48:12;60.17;;;26.73;;
28007;SDS011;15333;50.010;20.020;2022-10-31T17:51:13;65.82;;;29.60;;
28007;SDS011;15333;50.010;20.020;2022-10-31T17:54:14;59.83;;;28.58;;
28007;SDS011;15333;50.010;20.020;2022-10-31T17:57:18;67.15;;;30.65;;
28007;SDS011;15333;50.010;20.020;2022-10-31T18:00:19;55.22;;;27.50;;
28007;SDS011;15333;50.010;20.020;2022-10-31T18:03:22;55.42;;;25.98;;
28007;SDS011;15333;50.010;20.020;2022-10-31T18:06:23;54.65;;;25.27;;
28007;SDS011;15333;50.010;20.020;2022-10-31T18:09:24;50.15;;;24.23;;
28007;SDS011;15333;50.010;20.020;2022-10-31T18:12:25;59.78;;;24.38;;
28007;SDS011;15333;50.010;20.020;2022-10-31T18:15:27;62.13;;;25.27;;
28007;SDS011;15333;50.010;20.020;2022-10-31T18:18:28;47.95;;;24.42;;
28007;SDS011;15333;50.010;20.020;2022-10-31T18:21:29;59.70;;;27.08;;
28007;SDS011;15333;50.010;20.020;2022-10-31T18:24:30;52.20;;;25.30;;
28007;SDS011;15333;50.010;20.020;2022-10-31T18:27:31;59.15;;;25.98;;
28007;SDS011;15333;50.010;20.020;2022-10-31T18:30:33;56.55;;;26.13;;
28007;SDS011;15333;50.010;20.020;2022-10-31T18:33:33;55.05;;;25.13;;
28007;SDS011;15333;50.010;20.020;2022-10-31T18:36:34;59.85;;;26.40;;
28007;SDS011;15333;50.010;20.020;2022-10-31T18:39:35;51.50;;;25.33;;
28007;SDS011;15333;50.010;20.020;2022-10-31T18:42:36;48.22;;;24.80;;
28007;SDS011;15333;50.010;20.020;2022-10-31T18:45:38;52.63;;;25.67;;
28007;SDS011;15333;50.010;20.020;2022-10-31T18:48:39;55.80;;;27.30;;
28007;SDS011;15333;50.010;20.020;2022-10-31T18:51:41;58.47;;;27.15;;
28007;SDS011;15333;50.010;20.020;2022-10-31T18:54:42;67.25;;;26.85;;
28007;SDS011;15333;50.010;20.020;2022-10-31T18:57:44;66.45;;;31.80;;
28007;SDS011;15333;50.010;20.020;2022-10-31T19:00:46;61.25;;;30.67;;
28007;SDS011;15333;50.010;20.020;2022-10-31T19:03:53;59.42;;;28.92;;
28007;SDS011;15333;50.010;20.020;2022-10-31T19:06:55;65.70;;;33.53;;
28007;SDS011;15333;50.010;20.020;2022-10-31T19:09:56;61.28;;;30.55;;
28007;SDS011;15333;50.010;20.020;2022-10-31T19:12:57;65.05;;;31.17;;
28007;SDS011;15333;50.010;20.020;2022-10-31T19:16:09;64.18;;;31.48;;
28007;SDS011;15333;50.010;20.020;2022-10-31T19:19:11;65.20;;;32.47;;
28007;SDS011;15333;50.010;20.020;2022-10-31T19:22:12;73.68;;;35.25;;
28007;SDS011;15333;50.010;20.020;2022-10-31T19:25:13;67.55;;;34.55;;
28007;SDS011;15333;50.010;20.020;2022-10-31T19:28:14;69.13;;;34.00;;
28007;SDS011;15333;50.010;20.020;2022-10-31T19:31:15;67.47;;;33.42;;
28007;SDS011;15333;50.010;20.020;2022-10-31T19:34:17;63.88;;;35.15;;
28007;SDS011;15333;50.010;20.020;2022-10-31T19:37:18;80.30;;;40.22;;
28007;SDS011;15333;50.010;20.020;2022-10-31T19:40:19;76.28;;;41.17;;
28007;SDS011;15333;50.010;20.020;2022-10-31T19:43:20;81.30;;;39.88;;
28007;SDS011;15333;50.010;20.020;2022-10-31T19:46:21;92.00;;;40.85;;
28007;SDS011;15333;50.010;20.020;2022-10-31T19:49:23;73.72;;;37.90;;
28007;SDS011;15333;50.010;20.020;2022-10-31T19:52:24;79.40;;;40.03;;
28007;SDS011;15333;50.010;20.020;2022-10-31T19:55:25;70.10;;;33.45;;
28007;SDS011;15333;50.010;20.020;2022-10-31T19:58:26;76.00;;;34.60;;
28007;SDS011;15333;50.010;20.020;2022-10-31T20:01:27;81.50;;;38.47;;
28007;SDS011;15333;50.010;20.020;2022-10-31T20:04:29;74.55;;;34.53;;
28007;SDS011;15333;50.010;20.020;2022-10-31T20:07:30;80.70;;;35.85;;
28007;SDS011;15333;50.010;20.020;2022-10-31T20:10:30;72.25;;;31.02;;
28007;SDS011;15333;50.010;20.020;2022-10-31T20:13:31;73.43;;;32.33;;
28007;SDS011;15333;50.010;20.020;2022-10-31T20:16:33;74.55;;;35.47;;